Edzo, Canada
Current Conditions -  °F | °C
As of 10:00 PM on Tuesday 21 Oct 2014 (Local Time) from CYZF Reporting Station
Haze Haze  
Wind Chill: 23°   Ceiling: 300
Heat Index: 30°   Visibility: 3mi
Dew Point: 30°   Wind: 7mph
Humidity: 100%   Direction: 10°N
Pressure: 29.59"   Gusts: NA
Location:  62.78°N, 116.03°W
Report Text: CYZF 220400Z 01006KT 3SM BR OVC003 M01/M01 A2959 RMK ST8 SLP033
Loading
Personal Weather Stations






























Interactive Weather Map
Tropical Storm Tracking
New forecast layout! Learn more

10-Day Weather Forecast

Advertisements
Track Severe Weather on mobile